Time;durP1;ratioP1;P1;durP2;ratioP2;P2;SDS_P1;SDS_P2;PMS_P1;PMS_P2;Temp;Humidity;BMP_temperature;BMP_pressure;BME280_temperature;BME280_humidity;BME280_pressure;Samples;Min_cycle;Max_cycle;Signal;HPM_P1;HPM_P2
2023/05/01 00:01:42;;;;;;;3.20;2.97;;;;;;;;;;5011273;28;20231;-88
2023/05/01 00:04:09;;;;;;;3.93;3.57;;;;;;;;;;4996426;28;20204;-89
2023/05/01 00:06:36;;;;;;;3.30;3.00;;;;;;;;;;4995054;28;20236;-88
2023/05/01 00:09:05;;;;;;;3.83;2.87;;;;;;;;;;5000626;28;20215;-88
2023/05/01 00:11:36;;;;;;;5.33;3.13;;;;;;;;;;5004049;28;20238;-88
2023/05/01 00:14:03;;;;;;;5.97;3.43;;;;;;;;;;5009599;28;20204;-89
2023/05/01 00:16:30;;;;;;;3.33;3.13;;;;;;;;;;5012575;28;20239;-88
2023/05/01 00:18:57;;;;;;;4.30;3.70;;;;;;;;;;5013257;28;20211;-88
2023/05/01 00:21:24;;;;;;;3.60;3.30;;;;;;;;;;5012755;28;20235;-88
2023/05/01 00:23:51;;;;;;;6.27;3.53;;;;;;;;;;4994730;28;20693;-88
2023/05/01 00:26:18;;;;;;;4.47;3.60;;;;;;;;;;4993008;28;20236;-88
2023/05/01 00:28:46;;;;;;;4.73;3.63;;;;;;;;;;5001591;28;20203;-88
2023/05/01 00:31:14;;;;;;;5.43;3.50;;;;;;;;;;5012633;28;20747;-88
2023/05/01 00:33:41;;;;;;;3.77;3.40;;;;;;;;;;4996559;28;20633;-88
2023/05/01 00:36:08;;;;;;;3.47;3.17;;;;;;;;;;4992947;28;20243;-88
2023/05/01 00:38:35;;;;;;;6.17;3.60;;;;;;;;;;4994624;28;20203;-89
2023/05/01 00:41:02;;;;;;;6.87;4.43;;;;;;;;;;5002833;28;20247;-89
2023/05/01 00:43:29;;;;;;;4.27;2.57;;;;;;;;;;4993966;28;20199;-88
2023/05/01 00:45:58;;;;;;;4.57;3.73;;;;;;;;;;4992734;28;20251;-88
2023/05/01 00:48:26;;;;;;;5.57;3.50;;;;;;;;;;4993688;28;20278;-88
2023/05/01 00:50:53;;;;;;;3.60;3.30;;;;;;;;;;4992934;28;20236;-88
2023/05/01 00:53:21;;;;;;;3.53;2.80;;;;;;;;;;5006157;28;20636;-88
2023/05/01 00:55:49;;;;;;;4.97;3.30;;;;;;;;;;5012303;28;20701;-88
2023/05/01 00:58:18;;;;;;;2.97;2.77;;;;;;;;;;5012410;28;20685;-88
2023/05/01 01:00:46;;;;;;;3.30;2.83;;;;;;;;;;5011564;28;20227;-88
2023/05/01 01:03:14;;;;;;;3.30;3.00;;;;;;;;;;5010586;28;20574;-88
2023/05/01 01:05:43;;;;;;;3.10;2.87;;;;;;;;;;5012563;28;20338;-88
2023/05/01 01:08:16;;;;;;;6.20;2.97;;;;;;;;;;4999791;28;20212;-88
2023/05/01 01:10:47;;;;;;;3.37;2.93;;;;;;;;;;4993293;28;20277;-88
2023/05/01 01:13:18;;;;;;;5.23;2.87;;;;;;;;;;4993487;28;20224;-88
2023/05/01 01:15:50;;;;;;;3.10;2.83;;;;;;;;;;4992795;28;20326;-88
2023/05/01 01:18:22;;;;;;;3.10;2.90;;;;;;;;;;4993417;28;20192;-89
2023/05/01 01:20:50;;;;;;;2.90;2.70;;;;;;;;;;5000223;28;20231;-88
2023/05/01 01:23:38;;;;;;;3.13;2.83;;;;;;;;;;5001261;28;20207;-88
2023/05/01 01:26:11;;;;;;;4.17;3.23;;;;;;;;;;4992470;28;20656;-88
2023/05/01 01:28:59;;;;;;;8.07;3.27;;;;;;;;;;5001973;28;20232;-88
2023/05/01 01:31:30;;;;;;;3.40;3.10;;;;;;;;;;5010071;28;20234;-89
2023/05/01 01:34:09;;;;;;;3.53;3.20;;;;;;;;;;5012694;28;20195;-89
2023/05/01 01:36:40;;;;;;;4.83;3.43;;;;;;;;;;5011772;28;20243;-88
2023/05/01 01:39:11;;;;;;;4.20;3.30;;;;;;;;;;5012560;28;20203;-88
2023/05/01 01:41:39;;;;;;;3.10;2.80;;;;;;;;;;5011326;28;20230;-88
2023/05/01 01:44:09;;;;;;;3.83;3.43;;;;;;;;;;5012220;28;20199;-89
2023/05/01 01:46:37;;;;;;;3.77;3.47;;;;;;;;;;5009819;28;20242;-88
2023/05/01 01:49:08;;;;;;;5.57;2.70;;;;;;;;;;4992559;28;20647;-88
2023/05/01 01:51:36;;;;;;;3.43;2.80;;;;;;;;;;5009748;28;20615;-88
2023/05/01 01:54:04;;;;;;;3.47;3.17;;;;;;;;;;4995570;28;20204;-88
2023/05/01 01:56:32;;;;;;;3.20;2.90;;;;;;;;;;4992078;28;20299;-89
2023/05/01 01:59:01;;;;;;;3.47;3.17;;;;;;;;;;4992699;28;20236;-88
2023/05/01 02:01:29;;;;;;;3.67;3.17;;;;;;;;;;4991997;28;20232;-89
2023/05/01 02:03:57;;;;;;;3.60;3.30;;;;;;;;;;5008440;28;20595;-88
2023/05/01 02:06:26;;;;;;;3.40;3.10;;;;;;;;;;5011442;28;20697;-88
2023/05/01 02:08:54;;;;;;;4.03;3.07;;;;;;;;;;5012009;28;20242;-88
2023/05/01 02:11:22;;;;;;;4.53;3.30;;;;;;;;;;5015186;28;20259;-89
2023/05/01 02:13:50;;;;;;;3.37;3.10;;;;;;;;;;5005174;28;20224;-88
2023/05/01 02:16:18;;;;;;;3.30;3.00;;;;;;;;;;4995687;28;20236;-89
2023/05/01 02:18:46;;;;;;;4.40;3.03;;;;;;;;;;4996107;28;20216;-88
2023/05/01 02:21:14;;;;;;;3.40;3.10;;;;;;;;;;4995655;28;20242;-88
2023/05/01 02:23:43;;;;;;;3.50;3.20;;;;;;;;;;5009379;28;20227;-89
2023/05/01 02:26:13;;;;;;;3.57;3.27;;;;;;;;;;5014990;28;20322;-88
2023/05/01 02:28:43;;;;;;;3.60;3.20;;;;;;;;;;5017295;28;20213;-89
2023/05/01 02:31:10;;;;;;;3.50;3.20;;;;;;;;;;5017375;28;20237;-89
2023/05/01 02:33:37;;;;;;;3.90;3.50;;;;;;;;;;5016303;28;20568;-88
2023/05/01 02:36:04;;;;;;;3.00;2.70;;;;;;;;;;5015105;28;20235;-88
2023/05/01 02:38:31;;;;;;;3.80;3.50;;;;;;;;;;5015490;28;20657;-89
2023/05/01 02:41:01;;;;;;;3.30;3.00;;;;;;;;;;5015228;28;20258;-89
2023/05/01 02:43:29;;;;;;;4.20;3.47;;;;;;;;;;5015072;28;20566;-88
2023/05/01 02:45:57;;;;;;;3.90;3.50;;;;;;;;;;5015066;28;20239;-89
2023/05/01 02:48:27;;;;;;;4.33;3.17;;;;;;;;;;5015407;28;20211;-89
2023/05/01 02:50:55;;;;;;;5.80;3.37;;;;;;;;;;5014586;28;20231;-88
2023/05/01 02:53:22;;;;;;;4.53;3.30;;;;;;;;;;5014960;28;20731;-88
2023/05/01 02:55:50;;;;;;;4.93;3.20;;;;;;;;;;5014619;28;20246;-89
2023/05/01 02:58:18;;;;;;;3.97;3.27;;;;;;;;;;5015103;28;20208;-88
2023/05/01 03:00:46;;;;;;;3.23;3.00;;;;;;;;;;5014756;28;20238;-89
2023/05/01 03:03:13;;;;;;;4.57;3.10;;;;;;;;;;5009722;28;20254;-88
2023/05/01 03:05:40;;;;;;;3.50;3.20;;;;;;;;;;5014171;28;20239;-89
2023/05/01 03:08:08;;;;;;;4.23;3.30;;;;;;;;;;5014753;28;20261;-89
2023/05/01 03:10:35;;;;;;;3.30;3.07;;;;;;;;;;5014368;28;20605;-89
2023/05/01 03:13:02;;;;;;;4.53;3.40;;;;;;;;;;5014465;28;20231;-88
2023/05/01 03:15:31;;;;;;;3.97;3.40;;;;;;;;;;5020452;22;20676;-85
2023/05/01 03:17:58;;;;;;;3.77;3.40;;;;;;;;;;5039324;28;20229;-85
2023/05/01 03:20:25;;;;;;;5.03;3.50;;;;;;;;;;5034766;28;20239;-85
2023/05/01 03:22:52;;;;;;;5.13;3.40;;;;;;;;;;5022819;28;20207;-85
2023/05/01 03:25:19;;;;;;;5.73;3.70;;;;;;;;;;5031698;28;20230;-85
2023/05/01 03:27:46;;;;;;;6.33;3.40;;;;;;;;;;5033969;28;20214;-85
2023/05/01 03:30:13;;;;;;;4.30;3.57;;;;;;;;;;5011475;28;20236;-85
2023/05/01 03:32:42;;;;;;;6.00;3.30;;;;;;;;;;5013854;28;20227;-85
2023/05/01 03:35:09;;;;;;;4.67;3.60;;;;;;;;;;5022657;28;20226;-85
2023/05/01 03:37:36;;;;;;;6.60;3.63;;;;;;;;;;5036503;28;20215;-85
2023/05/01 03:40:03;;;;;;;4.33;3.63;;;;;;;;;;5028975;28;20242;-85
2023/05/01 03:42:30;;;;;;;4.43;3.70;;;;;;;;;;5013584;28;20203;-85
2023/05/01 03:44:57;;;;;;;5.00;3.80;;;;;;;;;;5016661;28;20723;-86
2023/05/01 03:47:24;;;;;;;5.13;3.77;;;;;;;;;;5033392;28;20214;-85
2023/05/01 03:49:53;;;;;;;4.60;4.10;;;;;;;;;;5029879;28;20242;-85
2023/05/01 03:52:20;;;;;;;4.30;3.43;;;;;;;;;;5013415;28;20211;-85
2023/05/01 03:54:48;;;;;;;5.90;3.90;;;;;;;;;;5015425;28;20211;-85
2023/05/01 03:57:15;;;;;;;6.20;4.07;;;;;;;;;;5033159;28;20207;-85
2023/05/01 03:59:43;;;;;;;5.43;3.80;;;;;;;;;;5031093;28;20207;-85
2023/05/01 04:02:10;;;;;;;4.73;3.60;;;;;;;;;;5013221;28;20257;-85
2023/05/01 04:04:37;;;;;;;7.53;3.93;;;;;;;;;;5010360;28;20211;-85
2023/05/01 04:07:06;;;;;;;4.97;4.07;;;;;;;;;;5032722;28;20223;-86
2023/05/01 04:09:33;;;;;;;4.63;3.93;;;;;;;;;;5032184;28;20204;-85
2023/05/01 04:12:01;;;;;;;3.83;3.53;;;;;;;;;;5012870;28;20258;-86
2023/05/01 04:14:28;;;;;;;4.73;4.00;;;;;;;;;;5009947;28;20310;-86
2023/05/01 04:16:55;;;;;;;4.20;3.67;;;;;;;;;;5031917;28;20226;-86
2023/05/01 04:19:22;;;;;;;6.20;4.00;;;;;;;;;;5032841;28;20698;-86
2023/05/01 04:21:49;;;;;;;4.13;3.67;;;;;;;;;;5013549;28;20227;-85
2023/05/01 04:24:17;;;;;;;9.30;4.60;;;;;;;;;;4994191;28;20204;-86
2023/05/01 04:26:45;;;;;;;4.93;4.13;;;;;;;;;;5030913;28;20235;-86
2023/05/01 04:29:12;;;;;;;6.43;4.10;;;;;;;;;;5032654;28;20248;-86
2023/05/01 04:31:40;;;;;;;6.20;3.80;;;;;;;;;;5014288;28;20233;-86
2023/05/01 04:34:07;;;;;;;8.47;4.70;;;;;;;;;;5009529;28;20307;-86
2023/05/01 04:36:34;;;;;;;6.20;4.33;;;;;;;;;;5020416;28;20231;-86
2023/05/01 04:39:01;;;;;;;6.87;4.20;;;;;;;;;;5030362;28;20207;-86
2023/05/01 04:41:29;;;;;;;5.23;3.97;;;;;;;;;;5016084;28;20235;-86
2023/05/01 04:43:56;;;;;;;6.63;4.17;;;;;;;;;;5010457;28;20207;-86
2023/05/01 04:46:23;;;;;;;4.63;4.20;;;;;;;;;;5018883;28;20284;-85
2023/05/01 04:48:51;;;;;;;5.27;4.27;;;;;;;;;;5032386;28;20223;-86
2023/05/01 04:51:18;;;;;;;5.60;4.20;;;;;;;;;;5017071;28;20234;-86
2023/05/01 04:53:45;;;;;;;4.77;4.37;;;;;;;;;;5012596;28;20638;-86
2023/05/01 04:56:12;;;;;;;4.60;4.20;;;;;;;;;;5021704;28;20234;-86
2023/05/01 04:58:41;;;;;;;4.53;4.03;;;;;;;;;;5032129;28;20218;-86
2023/05/01 05:01:08;;;;;;;6.60;4.20;;;;;;;;;;5018596;28;20223;-85
2023/05/01 05:03:35;;;;;;;5.93;4.47;;;;;;;;;;5007033;28;20616;-86
2023/05/01 05:06:03;;;;;;;5.47;4.30;;;;;;;;;;5022152;28;20238;-85
2023/05/01 05:08:30;;;;;;;9.90;4.53;;;;;;;;;;5032542;28;20211;-86
2023/05/01 05:10:58;;;;;;;8.30;5.13;;;;;;;;;;5019831;28;20238;-86
2023/05/01 05:13:25;;;;;;;6.03;4.77;;;;;;;;;;5012497;28;20649;-85
2023/05/01 05:15:54;;;;;;;5.57;4.17;;;;;;;;;;5011370;28;21013;-86
2023/05/01 05:18:21;;;;;;;6.30;4.50;;;;;;;;;;5014081;28;20219;-86
2023/05/01 05:20:48;;;;;;;5.00;4.50;;;;;;;;;;5009687;28;20717;-86
2023/05/01 05:23:15;;;;;;;4.97;3.97;;;;;;;;;;5003643;28;20199;-86
2023/05/01 05:25:42;;;;;;;4.83;4.30;;;;;;;;;;5021022;28;20726;-86
2023/05/01 05:28:09;;;;;;;8.00;5.03;;;;;;;;;;5032308;28;20556;-87
2023/05/01 05:30:37;;;;;;;5.07;4.10;;;;;;;;;;5023029;28;20713;-86
2023/05/01 05:33:08;;;;;;;6.53;4.60;;;;;;;;;;5012376;28;20211;-86
2023/05/01 05:35:35;;;;;;;4.40;4.00;;;;;;;;;;5016079;28;20656;-86
2023/05/01 05:38:02;;;;;;;6.50;4.13;;;;;;;;;;5030017;28;20218;-86
2023/05/01 05:40:29;;;;;;;5.20;4.50;;;;;;;;;;5031692;28;20716;-86
2023/05/01 05:42:56;;;;;;;6.00;4.30;;;;;;;;;;5032286;28;20206;-87
2023/05/01 05:45:24;;;;;;;5.90;4.63;;;;;;;;;;5023600;28;20300;-86
2023/05/01 05:47:51;;;;;;;4.73;4.30;;;;;;;;;;5012826;28;20685;-86
2023/05/01 05:50:19;;;;;;;6.77;4.63;;;;;;;;;;5021936;28;20234;-86
2023/05/01 05:52:46;;;;;;;7.70;4.60;;;;;;;;;;5029643;28;20677;-86
2023/05/01 05:55:13;;;;;;;6.23;4.27;;;;;;;;;;5029770;28;20246;-87
2023/05/01 05:57:41;;;;;;;5.13;4.00;;;;;;;;;;5010830;28;20212;-86
2023/05/01 06:00:09;;;;;;;4.53;3.80;;;;;;;;;;5011403;28;20235;-86
2023/05/01 06:02:36;;;;;;;7.93;4.40;;;;;;;;;;5008551;28;20215;-86
2023/05/01 06:05:03;;;;;;;5.13;4.60;;;;;;;;;;5032819;28;20226;-86
2023/05/01 06:07:31;;;;;;;5.73;4.43;;;;;;;;;;5027206;28;20211;-86
2023/05/01 06:10:01;;;;;;;6.20;4.60;;;;;;;;;;5025433;28;20582;-87
2023/05/01 06:12:28;;;;;;;4.60;4.20;;;;;;;;;;5015732;28;20294;-88
2023/05/01 06:14:56;;;;;;;7.73;4.40;;;;;;;;;;5018550;28;20241;-86
2023/05/01 06:17:23;;;;;;;6.37;4.30;;;;;;;;;;5035362;28;20206;-86
2023/05/01 06:19:51;;;;;;;7.63;4.60;;;;;;;;;;5032918;28;20203;-86
2023/05/01 06:22:18;;;;;;;6.00;4.27;;;;;;;;;;5015211;28;20207;-85
2023/05/01 06:24:46;;;;;;;5.90;4.60;;;;;;;;;;5017091;28;20207;-86
2023/05/01 06:27:13;;;;;;;5.73;4.27;;;;;;;;;;5035529;28;20217;-85
2023/05/01 06:29:41;;;;;;;8.10;4.57;;;;;;;;;;5033710;28;20210;-85
2023/05/01 06:32:08;;;;;;;7.13;4.50;;;;;;;;;;5015439;28;20669;-85
2023/05/01 06:34:35;;;;;;;6.60;4.30;;;;;;;;;;5015719;28;20227;-85
2023/05/01 06:37:04;;;;;;;7.87;4.30;;;;;;;;;;5035109;28;20238;-85
2023/05/01 06:39:31;;;;;;;5.50;4.57;;;;;;;;;;5035701;28;20625;-84
2023/05/01 06:42:00;;;;;;;6.40;4.40;;;;;;;;;;5016440;28;20689;-85
2023/05/01 06:44:27;;;;;;;5.80;4.43;;;;;;;;;;5018265;28;20216;-86
2023/05/01 06:46:55;;;;;;;4.43;4.03;;;;;;;;;;5035126;28;20234;-86
2023/05/01 06:49:22;;;;;;;5.13;4.63;;;;;;;;;;5041119;28;20203;-85
2023/05/01 06:51:49;;;;;;;4.63;4.23;;;;;;;;;;5019802;28;20242;-85
2023/05/01 06:54:16;;;;;;;4.70;4.30;;;;;;;;;;5016306;28;20227;-85
2023/05/01 06:56:43;;;;;;;5.07;4.20;;;;;;;;;;5034075;28;20235;-86
2023/05/01 06:59:12;;;;;;;5.07;4.20;;;;;;;;;;5034990;28;20289;-86
2023/05/01 07:01:39;;;;;;;5.33;4.30;;;;;;;;;;5017125;28;20231;-86
2023/05/01 07:04:06;;;;;;;4.83;4.33;;;;;;;;;;5015035;28;20211;-86
2023/05/01 07:06:33;;;;;;;5.87;4.33;;;;;;;;;;5031023;28;20234;-86
2023/05/01 07:09:00;;;;;;;5.37;4.23;;;;;;;;;;5020555;28;20204;-86
2023/05/01 07:11:28;;;;;;;5.73;4.30;;;;;;;;;;5019593;28;20303;-86
2023/05/01 07:13:55;;;;;;;7.67;4.10;;;;;;;;;;5018740;28;20261;-86
2023/05/01 07:16:23;;;;;;;5.10;4.27;;;;;;;;;;5025819;28;20235;-84
2023/05/01 07:18:50;;;;;;;5.47;4.00;;;;;;;;;;5035205;28;20646;-84
2023/05/01 07:21:17;;;;;;;7.67;4.30;;;;;;;;;;5016786;28;20255;-84
2023/05/01 07:23:45;;;;;;;4.37;3.97;;;;;;;;;;5015350;28;20203;-84
2023/05/01 07:26:12;;;;;;;5.53;3.97;;;;;;;;;;5028449;28;20241;-84
2023/05/01 07:28:40;;;;;;;5.37;4.07;;;;;;;;;;5034643;28;20211;-84
2023/05/01 07:31:07;;;;;;;4.97;3.50;;;;;;;;;;5021654;28;20238;-84
2023/05/01 07:33:35;;;;;;;7.33;4.10;;;;;;;;;;5013344;28;20203;-83
2023/05/01 07:36:03;;;;;;;8.30;4.47;;;;;;;;;;5016069;28;20229;-82
2023/05/01 07:38:30;;;;;;;9.47;4.27;;;;;;;;;;5035100;28;20210;-82
2023/05/01 07:40:57;;;;;;;4.73;3.83;;;;;;;;;;5022121;28;20219;-82
2023/05/01 07:43:24;;;;;;;4.63;3.60;;;;;;;;;;5014026;28;20207;-82
2023/05/01 07:45:56;;;;;;;5.10;3.93;;;;;;;;;;5024713;28;20242;-83
2023/05/01 07:48:23;;;;;;;5.60;3.70;;;;;;;;;;5034178;28;20217;-83
2023/05/01 07:50:51;;;;;;;5.70;3.80;;;;;;;;;;5020903;28;20767;-83
2023/05/01 07:53:18;;;;;;;4.93;3.77;;;;;;;;;;5013086;28;20695;-83
2023/05/01 07:55:45;;;;;;;4.63;3.30;;;;;;;;;;5022149;28;20235;-83
2023/05/01 07:58:12;;;;;;;5.23;3.60;;;;;;;;;;5032091;28;20211;-83
2023/05/01 08:00:39;;;;;;;6.10;3.80;;;;;;;;;;5023961;28;20231;-83
2023/05/01 08:03:06;;;;;;;4.63;3.73;;;;;;;;;;5010213;28;20223;-84
2023/05/01 08:05:33;;;;;;;8.03;4.10;;;;;;;;;;5014105;28;20238;-85
2023/05/01 08:08:02;;;;;;;4.60;3.80;;;;;;;;;;5032727;28;20203;-82
2023/05/01 08:10:29;;;;;;;6.37;3.63;;;;;;;;;;5026994;28;20226;-85
2023/05/01 08:12:56;;;;;;;4.83;3.70;;;;;;;;;;5033945;28;20210;-85
2023/05/01 08:15:23;;;;;;;5.23;3.53;;;;;;;;;;5022911;28;20239;-82
2023/05/01 08:17:50;;;;;;;4.30;3.60;;;;;;;;;;5011331;28;20203;-83
2023/05/01 08:20:18;;;;;;;4.53;3.50;;;;;;;;;;5019320;28;20248;-83
2023/05/01 08:22:45;;;;;;;6.70;3.90;;;;;;;;;;5033379;28;20207;-83
2023/05/01 08:25:13;;;;;;;5.03;3.70;;;;;;;;;;5027058;28;20227;-83
2023/05/01 08:27:40;;;;;;;5.53;3.60;;;;;;;;;;5013714;28;20209;-83
2023/05/01 08:30:08;;;;;;;5.77;3.73;;;;;;;;;;5017985;28;20779;-84
2023/05/01 08:32:35;;;;;;;5.20;3.67;;;;;;;;;;5032645;28;20198;-83
2023/05/01 08:35:02;;;;;;;5.10;3.60;;;;;;;;;;5027993;28;20235;-83
2023/05/01 08:37:29;;;;;;;5.23;3.73;;;;;;;;;;5012394;28;20216;-84
2023/05/01 08:39:56;;;;;;;5.40;3.50;;;;;;;;;;5008932;28;20238;-85
2023/05/01 08:42:25;;;;;;;4.77;4.27;;;;;;;;;;4999985;28;20215;-84
2023/05/01 08:44:54;;;;;;;4.60;3.60;;;;;;;;;;5016027;28;20280;-84
2023/05/01 08:47:21;;;;;;;5.07;3.60;;;;;;;;;;5019970;28;20230;-84
2023/05/01 08:49:49;;;;;;;5.57;3.73;;;;;;;;;;5025870;28;20195;-84
2023/05/01 08:52:16;;;;;;;7.07;3.50;;;;;;;;;;5009134;28;20204;-84
2023/05/01 08:54:44;;;;;;;5.47;3.43;;;;;;;;;;5013628;28;20223;-84
2023/05/01 08:57:12;;;;;;;5.30;3.83;;;;;;;;;;5032744;28;20222;-84
2023/05/01 08:59:41;;;;;;;4.13;3.73;;;;;;;;;;5031154;28;20211;-84
2023/05/01 09:02:09;;;;;;;4.00;3.30;;;;;;;;;;5012722;28;20206;-84
2023/05/01 09:04:37;;;;;;;3.87;3.53;;;;;;;;;;5011988;28;20394;-84
2023/05/01 09:07:05;;;;;;;3.70;3.40;;;;;;;;;;5032409;28;20229;-84
2023/05/01 09:09:32;;;;;;;4.27;3.37;;;;;;;;;;5031426;28;20195;-83
2023/05/01 09:12:02;;;;;;;7.53;4.50;;;;;;;;;;5012706;28;20203;-84
2023/05/01 09:14:29;;;;;;;6.20;3.60;;;;;;;;;;5012401;28;20302;-84
2023/05/01 09:16:58;;;;;;;4.37;3.93;;;;;;;;;;5012458;28;20242;-85
2023/05/01 09:19:25;;;;;;;4.23;3.83;;;;;;;;;;5012317;28;20215;-85
2023/05/01 09:21:53;;;;;;;6.37;3.80;;;;;;;;;;5031339;28;20245;-85
2023/05/01 09:24:20;;;;;;;5.80;3.40;;;;;;;;;;5032142;28;20695;-85
2023/05/01 09:26:48;;;;;;;5.73;3.53;;;;;;;;;;5012727;28;20639;-85
2023/05/01 09:29:37;;;;;;;4.23;3.33;;;;;;;;;;5012325;28;20286;-85
2023/05/01 09:32:15;;;;;;;5.07;4.00;;;;;;;;;;5011551;28;20226;-85
2023/05/01 09:34:42;;;;;;;4.47;3.15;;;;;;;;;;4998178;28;20219;-85
2023/05/01 09:37:09;;;;;;;4.95;3.53;;;;;;;;;;5011716;28;20302;-85
2023/05/01 09:39:36;;;;;;;4.37;3.80;;;;;;;;;;5012448;28;20207;-85
2023/05/01 09:42:03;;;;;;;4.80;3.63;;;;;;;;;;5031894;28;20230;-85
2023/05/01 09:44:30;;;;;;;6.03;3.47;;;;;;;;;;5031249;28;20278;-85
2023/05/01 09:46:57;;;;;;;4.28;3.60;;;;;;;;;;5009126;28;20218;-85
2023/05/01 09:52:18;;;;;;;5.20;3.50;;;;;;;;;;5160796;27;20549;-86
2023/05/01 09:54:45;;;;;;;5.28;3.75;;;;;;;;;;5163623;27;20217;-86
2023/05/01 09:57:12;;;;;;;4.00;3.60;;;;;;;;;;5154308;27;20226;-86
2023/05/01 09:59:39;;;;;;;3.85;3.40;;;;;;;;;;5160327;27;20202;-85
2023/05/01 10:02:07;;;;;;;4.80;3.55;;;;;;;;;;5159939;27;20217;-86
2023/05/01 10:04:35;;;;;;;4.72;3.20;;;;;;;;;;5157543;27;20678;-86
2023/05/01 10:07:13;;;;;;;5.10;3.40;;;;;;;;;;5146925;27;20219;-86
2023/05/01 10:09:41;;;;;;;4.68;3.53;;;;;;;;;;5118185;27;20562;-86
2023/05/01 10:12:08;;;;;;;4.25;3.30;;;;;;;;;;5134152;27;20268;-86
2023/05/01 10:14:49;;;;;;;4.97;3.80;;;;;;;;;;5129970;27;20199;-86
2023/05/01 10:17:19;;;;;;;3.80;3.50;;;;;;;;;;5139711;27;20207;-86
2023/05/01 10:19:46;;;;;;;5.22;3.65;;;;;;;;;;5150549;27;20206;-86
2023/05/01 10:22:14;;;;;;;5.38;3.40;;;;;;;;;;5141761;27;20203;-87
2023/05/01 10:24:43;;;;;;;5.75;4.45;;;;;;;;;;5136518;27;20692;-86
2023/05/01 10:27:10;;;;;;;3.80;3.40;;;;;;;;;;5136351;27;20290;-87
2023/05/01 10:29:38;;;;;;;4.20;3.30;;;;;;;;;;5142427;27;20207;-87
2023/05/01 10:32:06;;;;;;;4.60;4.10;;;;;;;;;;5142692;27;20219;-88
2023/05/01 10:34:34;;;;;;;7.15;3.70;;;;;;;;;;5141056;27;20207;-88
2023/05/01 10:37:04;;;;;;;6.30;3.65;;;;;;;;;;5143083;27;20222;-88
2023/05/01 10:39:32;;;;;;;3.92;3.63;;;;;;;;;;5139080;27;20287;-88
2023/05/01 10:42:09;;;;;;;5.47;3.95;;;;;;;;;;5138907;27;20692;-87
2023/05/01 10:44:37;;;;;;;3.70;3.40;;;;;;;;;;5131525;27;20233;-87
2023/05/01 10:47:23;;;;;;;4.22;3.40;;;;;;;;;;5140328;27;20230;-88
2023/05/01 10:50:05;;;;;;;4.32;3.50;;;;;;;;;;5138398;27;20207;-86
2023/05/01 10:52:56;;;;;;;5.13;3.85;;;;;;;;;;5141903;27;20195;-87
2023/05/01 10:55:33;;;;;;;5.50;4.25;;;;;;;;;;5141059;27;20262;-87
2023/05/01 10:58:02;;;;;;;6.28;4.10;;;;;;;;;;5143307;27;20202;-87
2023/05/01 11:00:29;;;;;;;4.82;3.60;;;;;;;;;;5142065;27;20260;-87
2023/05/01 11:03:11;;;;;;;4.10;3.30;;;;;;;;;;5125454;27;20204;-88
2023/05/01 11:06:03;;;;;;;5.03;3.38;;;;;;;;;;5130184;27;20233;-88
2023/05/01 11:08:30;;;;;;;5.97;3.88;;;;;;;;;;5130642;27;20613;-88
2023/05/01 11:10:57;;;;;;;4.07;3.42;;;;;;;;;;5129289;27;20254;-87
2023/05/01 11:13:39;;;;;;;7.82;3.40;;;;;;;;;;5127538;27;20210;-88
2023/05/01 11:16:21;;;;;;;4.75;3.83;;;;;;;;;;5124156;27;20231;-85
2023/05/01 11:18:50;;;;;;;3.50;3.20;;;;;;;;;;5116766;27;20200;-85
2023/05/01 11:21:17;;;;;;;4.25;3.85;;;;;;;;;;5132937;27;20227;-85
2023/05/01 11:23:47;;;;;;;4.07;3.58;;;;;;;;;;5124068;27;20692;-85
2023/05/01 11:26:14;;;;;;;3.65;3.05;;;;;;;;;;5123701;27;20243;-85
2023/05/01 11:28:42;;;;;;;3.60;3.30;;;;;;;;;;5123295;27;20670;-86
2023/05/01 11:31:10;;;;;;;3.70;3.30;;;;;;;;;;5122798;27;20598;-85
2023/05/01 11:33:37;;;;;;;3.95;3.60;;;;;;;;;;5131820;27;20232;-86
2023/05/01 11:36:06;;;;;;;5.35;3.15;;;;;;;;;;5122959;27;20228;-86
2023/05/01 11:38:33;;;;;;;5.47;3.78;;;;;;;;;;5125796;27;20204;-87
2023/05/01 11:41:02;;;;;;;4.95;3.22;;;;;;;;;;5126399;27;20230;-86
2023/05/01 11:43:29;;;;;;;5.35;3.33;;;;;;;;;;5124362;27;20674;-86
2023/05/01 11:46:01;;;;;;;4.18;3.58;;;;;;;;;;5122640;27;20227;-85
2023/05/01 11:48:29;;;;;;;5.25;3.40;;;;;;;;;;5124662;27;20286;-86
2023/05/01 11:50:56;;;;;;;4.15;3.22;;;;;;;;;;5125958;27;20224;-85
2023/05/01 11:53:25;;;;;;;4.40;3.25;;;;;;;;;;5125260;27;20203;-86
2023/05/01 11:55:52;;;;;;;3.10;2.85;;;;;;;;;;5122527;27;20235;-86
2023/05/01 11:58:31;;;;;;;3.38;3.08;;;;;;;;;;5123139;27;20582;-86
2023/05/01 12:00:58;;;;;;;5.30;3.42;;;;;;;;;;5125976;27;20223;-85
2023/05/01 12:03:25;;;;;;;6.35;3.72;;;;;;;;;;5118288;27;20272;-86
2023/05/01 12:05:53;;;;;;;4.20;3.45;;;;;;;;;;5126306;27;20231;-86
2023/05/01 12:08:21;;;;;;;3.88;3.13;;;;;;;;;;5125797;27;20214;-86
2023/05/01 12:10:51;;;;;;;4.85;3.35;;;;;;;;;;5118547;27;20231;-86
2023/05/01 12:13:18;;;;;;;5.25;3.40;;;;;;;;;;5126762;27;20728;-86
2023/05/01 12:15:46;;;;;;;5.45;2.90;;;;;;;;;;5125414;27;20277;-86
2023/05/01 12:18:13;;;;;;;3.75;2.80;;;;;;;;;;5126458;27;20255;-86
2023/05/01 12:20:41;;;;;;;4.13;3.03;;;;;;;;;;5125016;27;20227;-86
2023/05/01 12:23:10;;;;;;;4.43;3.38;;;;;;;;;;5122998;27;20208;-86
2023/05/01 12:25:38;;;;;;;6.43;3.35;;;;;;;;;;5125884;27;20238;-86
2023/05/01 12:28:10;;;;;;;5.47;3.15;;;;;;;;;;5117857;27;20200;-85
2023/05/01 12:30:37;;;;;;;3.70;3.00;;;;;;;;;;5125012;27;20235;-86
2023/05/01 12:33:09;;;;;;;4.38;3.25;;;;;;;;;;5126354;27;20203;-86
2023/05/01 12:35:36;;;;;;;3.20;2.90;;;;;;;;;;5123377;27;20235;-86
2023/05/01 12:38:10;;;;;;;3.47;2.97;;;;;;;;;;5122749;27;20718;-86
2023/05/01 12:40:37;;;;;;;4.07;3.05;;;;;;;;;;5122566;27;20231;-86
2023/05/01 12:43:04;;;;;;;3.80;3.25;;;;;;;;;;5122643;27;20208;-85
2023/05/01 12:45:39;;;;;;;4.13;2.95;;;;;;;;;;5123362;27;20735;-86
2023/05/01 12:48:10;;;;;;;3.15;2.85;;;;;;;;;;5122609;27;20206;-86
2023/05/01 12:50:37;;;;;;;3.30;2.83;;;;;;;;;;5130052;27;20234;-87
2023/05/01 12:53:05;;;;;;;3.20;2.90;;;;;;;;;;5121786;27;20227;-87
2023/05/01 12:55:34;;;;;;;4.38;2.90;;;;;;;;;;5123301;27;20716;-86
2023/05/01 12:58:01;;;;;;;3.15;2.85;;;;;;;;;;5128072;27;20295;-86
2023/05/01 13:00:28;;;;;;;3.47;3.13;;;;;;;;;;5121203;27;20232;-86
2023/05/01 13:03:02;;;;;;;3.25;2.85;;;;;;;;;;5121728;27;20199;-86
2023/05/01 13:05:29;;;;;;;3.13;2.88;;;;;;;;;;5123033;27;20231;-86
2023/05/01 13:07:57;;;;;;;3.10;2.63;;;;;;;;;;5125973;27;20202;-86
2023/05/01 13:10:31;;;;;;;3.25;2.70;;;;;;;;;;5123881;27;20239;-86
2023/05/01 13:12:58;;;;;;;4.15;2.60;;;;;;;;;;5121385;27;20220;-86
2023/05/01 13:15:26;;;;;;;3.22;2.92;;;;;;;;;;5121069;27;20246;-86
2023/05/01 13:17:53;;;;;;;3.10;2.40;;;;;;;;;;5121876;27;20204;-87
2023/05/01 13:20:27;;;;;;;2.97;2.70;;;;;;;;;;5112587;28;20640;-87
2023/05/01 13:22:55;;;;;;;3.03;2.40;;;;;;;;;;5113217;28;20192;-86
2023/05/01 13:25:22;;;;;;;2.75;2.55;;;;;;;;;;5119307;27;20241;-86
2023/05/01 13:27:50;;;;;;;2.63;2.42;;;;;;;;;;5133179;27;20560;-86
2023/05/01 13:30:20;;;;;;;2.95;2.75;;;;;;;;;;5108887;27;20330;-87
2023/05/01 13:32:48;;;;;;;3.38;2.90;;;;;;;;;;5094135;28;20323;-86
2023/05/01 13:35:22;;;;;;;3.22;2.88;;;;;;;;;;5092395;28;20332;-86
2023/05/01 13:37:51;;;;;;;2.65;2.45;;;;;;;;;;5092930;28;20245;-87
2023/05/01 13:40:18;;;;;;;2.90;2.70;;;;;;;;;;5093188;28;20243;-87
2023/05/01 13:42:47;;;;;;;3.53;2.60;;;;;;;;;;5094150;28;20196;-86
2023/05/01 13:45:14;;;;;;;3.08;2.40;;;;;;;;;;5092871;27;20229;-87
2023/05/01 13:47:41;;;;;;;2.60;2.40;;;;;;;;;;5092902;28;20209;-87
2023/05/01 13:50:10;;;;;;;2.85;2.53;;;;;;;;;;5092201;27;20277;-87
2023/05/01 13:52:42;;;;;;;4.18;2.85;;;;;;;;;;5092705;28;20228;-87
2023/05/01 13:55:11;;;;;;;3.05;2.80;;;;;;;;;;5092420;27;20251;-86
2023/05/01 13:57:39;;;;;;;2.97;2.65;;;;;;;;;;5092264;28;20212;-86
2023/05/01 14:00:08;;;;;;;2.83;2.40;;;;;;;;;;5091958;27;20285;-87
2023/05/01 14:02:35;;;;;;;3.25;2.58;;;;;;;;;;5092241;28;20666;-87
2023/05/01 14:05:02;;;;;;;2.95;2.67;;;;;;;;;;5093028;27;20234;-86
2023/05/01 14:07:29;;;;;;;3.33;3.00;;;;;;;;;;5093627;28;20207;-87
2023/05/01 14:09:57;;;;;;;4.80;3.22;;;;;;;;;;5092616;27;20236;-87
2023/05/01 14:12:27;;;;;;;2.92;2.63;;;;;;;;;;5092003;28;20263;-86
2023/05/01 14:14:54;;;;;;;2.90;2.70;;;;;;;;;;5092724;27;20755;-87
2023/05/01 14:17:26;;;;;;;2.90;2.38;;;;;;;;;;5093499;28;20208;-86
2023/05/01 14:19:53;;;;;;;3.08;2.80;;;;;;;;;;5093323;28;20236;-86
2023/05/01 14:22:21;;;;;;;3.17;2.88;;;;;;;;;;5113468;28;20200;-86
2023/05/01 14:24:49;;;;;;;3.03;2.72;;;;;;;;;;5113036;27;20266;-87
2023/05/01 14:27:16;;;;;;;3.80;2.67;;;;;;;;;;5113153;28;20575;-86
2023/05/01 14:29:45;;;;;;;2.58;2.38;;;;;;;;;;5112572;27;20204;-86
2023/05/01 14:32:13;;;;;;;5.25;2.90;;;;;;;;;;5113342;28;20719;-87
2023/05/01 14:34:41;;;;;;;3.13;2.83;;;;;;;;;;5112560;27;20211;-87
2023/05/01 14:37:09;;;;;;;3.33;3.10;;;;;;;;;;5113629;28;20228;-87
2023/05/01 14:39:36;;;;;;;2.70;2.50;;;;;;;;;;5102485;28;20662;-86
2023/05/01 14:42:05;;;;;;;3.17;2.88;;;;;;;;;;5095514;28;20611;-86
2023/05/01 14:44:32;;;;;;;2.90;2.70;;;;;;;;;;5095267;28;20209;-86
2023/05/01 14:47:00;;;;;;;2.90;2.70;;;;;;;;;;5095268;28;20231;-86
2023/05/01 14:49:28;;;;;;;2.70;2.50;;;;;;;;;;5095269;28;20558;-86
2023/05/01 14:51:55;;;;;;;3.33;2.47;;;;;;;;;;5094712;28;20705;-86
2023/05/01 14:54:22;;;;;;;2.67;2.47;;;;;;;;;;5095439;28;20209;-85